createdAt,value
2023-04-10T00:02:38.491Z,72.01
2023-04-10T00:05:41.752Z,71.54
2023-04-10T00:08:43.864Z,71.93
2023-04-10T00:11:46.044Z,71.62
2023-04-10T00:14:48.329Z,71.65
2023-04-10T00:17:55.153Z,70.71
2023-04-10T00:20:58.273Z,71.17
2023-04-10T00:24:00.443Z,71.61
2023-04-10T00:27:03.006Z,70.90
2023-04-10T00:30:05.673Z,70.75
2023-04-10T00:33:08.120Z,70.60
2023-04-10T00:36:10.492Z,70.53
2023-04-10T00:39:14.451Z,70.86
2023-04-10T00:42:16.975Z,70.58
2023-04-10T00:45:19.232Z,70.99
2023-04-10T00:48:21.553Z,70.62
2023-04-10T00:51:25.031Z,70.96
2023-04-10T00:54:27.243Z,70.65
2023-04-10T00:57:29.681Z,70.49
2023-04-10T01:00:32.145Z,70.48
2023-04-10T01:03:34.993Z,70.03
2023-04-10T01:07:07.506Z,70.33
2023-04-10T01:10:38.737Z,70.46
2023-04-10T01:13:55.958Z,69.38
2023-04-10T01:17:05.833Z,69.98
2023-04-10T01:20:15.144Z,71.07
2023-04-10T01:23:19.895Z,70.12
2023-04-10T01:26:40.932Z,69.52
2023-04-10T01:29:52.542Z,69.89
2023-04-10T01:33:00.732Z,70.27
2023-04-10T01:36:06.814Z,69.82
2023-04-10T01:39:11.111Z,69.90
2023-04-10T01:42:16.390Z,69.95
2023-04-10T01:45:23.734Z,69.29
2023-04-10T01:48:27.922Z,69.73
2023-04-10T01:51:32.761Z,69.70
2023-04-10T01:54:37.005Z,69.67
2023-04-10T01:57:39.262Z,69.08
2023-04-10T02:00:43.396Z,70.30
2023-04-10T02:03:48.165Z,70.16
2023-04-10T02:07:13.154Z,69.58
2023-04-10T02:10:25.015Z,69.54
2023-04-10T02:13:29.752Z,69.89
2023-04-10T02:16:33.315Z,68.61
2023-04-10T02:19:38.465Z,69.29
2023-04-10T02:22:45.969Z,69.54
2023-04-10T02:25:48.074Z,68.48
2023-04-10T02:28:51.869Z,69.39
2023-04-10T02:31:53.902Z,69.75
2023-04-10T02:34:57.034Z,69.29
2023-04-10T02:37:59.058Z,68.98
2023-04-10T02:41:01.543Z,68.54
2023-04-10T02:44:03.973Z,69.98
2023-04-10T02:47:07.313Z,69.98
2023-04-10T02:50:11.727Z,68.70
2023-04-10T02:53:17.426Z,69.25
2023-04-10T02:56:19.849Z,69.10
2023-04-10T02:59:22.089Z,69.53
2023-04-10T03:02:24.356Z,69.61
2023-04-10T03:05:27.301Z,68.47
2023-04-10T03:08:30.481Z,67.56
2023-04-10T03:11:32.711Z,67.99
2023-04-10T03:14:34.923Z,67.73
2023-04-10T03:17:37.021Z,67.81
2023-04-10T03:20:41.118Z,67.21
2023-04-10T03:23:43.806Z,67.92
2023-04-10T03:26:46.860Z,67.74
2023-04-10T03:29:48.913Z,68.52
2023-04-10T03:32:51.382Z,67.63
2023-04-10T03:35:53.844Z,68.27
2023-04-10T03:38:56.108Z,68.70
2023-04-10T03:41:58.200Z,67.76
2023-04-10T03:45:02.713Z,67.63
2023-04-10T03:48:05.128Z,68.02
2023-04-10T03:51:16.343Z,67.78
2023-04-10T03:54:19.939Z,67.36
2023-04-10T03:57:23.333Z,66.39
2023-04-10T04:00:27.934Z,67.40
2023-04-10T04:03:37.914Z,69.45
2023-04-10T04:06:58.363Z,69.22
2023-04-10T04:10:03.859Z,66.76
2023-04-10T04:13:24.530Z,65.81
2023-04-10T04:16:41.098Z,64.82
2023-04-10T04:20:01.867Z,67.45
2023-04-10T04:23:18.956Z,71.13
2023-04-10T04:26:51.215Z,69.89
2023-04-10T04:30:14.218Z,73.16
2023-04-10T04:33:24.521Z,74.56
2023-04-10T04:36:46.889Z,73.75
2023-04-10T04:40:07.816Z,78.40
2023-04-10T04:43:23.754Z,80.87
2023-04-10T04:46:48.364Z,82.77
2023-04-10T04:50:16.839Z,81.49
2023-04-10T04:53:41.526Z,80.55
2023-04-10T04:57:02.756Z,82.32
2023-04-10T05:00:24.709Z,81.60
2023-04-10T05:03:39.490Z,82.21
2023-04-10T05:07:17.577Z,82.31
2023-04-10T05:10:30.765Z,81.39
2023-04-10T05:13:51.502Z,80.73
2023-04-10T05:17:17.358Z,79.42
2023-04-10T05:20:49.962Z,80.54
2023-04-10T05:24:17.720Z,81.31
2023-04-10T05:27:28.785Z,80.62
2023-04-10T05:30:33.758Z,80.50
2023-04-10T05:33:41.729Z,80.24
2023-04-10T05:36:52.645Z,81.13
2023-04-10T05:40:14.945Z,79.83
2023-04-10T05:43:32.456Z,79.10
2023-04-10T05:47:00.845Z,75.44
2023-04-10T05:50:09.730Z,69.35
2023-04-10T05:53:33.273Z,65.38
2023-04-10T05:57:01.875Z,63.82
2023-04-10T06:00:21.333Z,62.00
2023-04-10T06:03:58.752Z,62.50
2023-04-10T06:07:01.593Z,71.77
2023-04-10T06:10:03.979Z,78.62
2023-04-10T06:13:11.221Z,82.26
2023-04-10T06:16:15.637Z,82.59
2023-04-10T06:19:19.030Z,87.07
2023-04-10T06:22:21.573Z,85.86
2023-04-10T06:25:23.604Z,85.59
2023-04-10T06:28:26.092Z,85.51
2023-04-10T06:31:35.107Z,86.46
2023-04-10T06:34:37.585Z,86.55
2023-04-10T06:37:42.970Z,85.82
2023-04-10T06:40:45.446Z,86.15
2023-04-10T06:43:48.352Z,85.81
2023-04-10T06:46:50.766Z,85.77
2023-04-10T06:49:54.873Z,84.50
2023-04-10T06:53:00.057Z,83.97
2023-04-10T06:56:03.647Z,81.80
2023-04-10T06:59:06.539Z,80.57
2023-04-10T07:02:09.086Z,80.48
2023-04-10T07:05:12.116Z,78.75
2023-04-10T07:08:14.454Z,78.06
2023-04-10T07:11:18.041Z,76.67
2023-04-10T07:14:20.267Z,77.32
2023-04-10T07:17:22.641Z,76.15
2023-04-10T07:20:25.369Z,75.45
2023-04-10T07:23:27.599Z,74.52
2023-04-10T07:26:29.705Z,74.23
2023-04-10T07:29:31.973Z,74.90
2023-04-10T07:32:35.126Z,74.75
2023-04-10T07:35:37.519Z,73.14
2023-04-10T07:38:40.572Z,73.07
2023-04-10T07:41:43.653Z,72.53
2023-04-10T07:44:46.116Z,72.66
2023-04-10T07:47:49.942Z,72.96
2023-04-10T07:50:52.986Z,73.65
2023-04-10T07:53:55.695Z,73.64
2023-04-10T07:56:57.807Z,73.79
2023-04-10T08:00:00.011Z,74.48
2023-04-10T08:03:02.814Z,75.00
2023-04-10T08:06:11.173Z,75.09
2023-04-10T08:09:13.251Z,74.97
2023-04-10T08:12:15.769Z,74.23
2023-04-10T08:15:21.025Z,73.89
2023-04-10T08:18:23.177Z,73.48
2023-04-10T08:21:28.265Z,75.35
2023-04-10T08:24:33.016Z,75.38
2023-04-10T08:27:35.145Z,75.39
2023-04-10T08:30:37.304Z,75.93
2023-04-10T08:33:39.417Z,77.51
2023-04-10T08:36:41.517Z,76.27
2023-04-10T08:39:43.616Z,77.14
2023-04-10T08:42:46.136Z,76.28
2023-04-10T08:45:49.222Z,76.93
2023-04-10T08:48:58.613Z,77.71
2023-04-10T08:52:05.387Z,81.42
2023-04-10T08:55:09.263Z,78.51
2023-04-10T08:58:14.746Z,77.04
2023-04-10T09:01:23.436Z,79.29
2023-04-10T09:04:27.597Z,81.15
2023-04-10T09:07:30.895Z,81.02
2023-04-10T09:10:35.470Z,79.67
2023-04-10T09:13:45.931Z,83.42
2023-04-10T09:16:49.964Z,79.08
2023-04-10T09:19:56.132Z,78.70
2023-04-10T09:22:58.768Z,84.39
2023-04-10T09:26:03.155Z,79.17
2023-04-10T09:29:07.551Z,90.37
2023-04-10T09:32:10.466Z,83.11
2023-04-10T09:35:16.142Z,77.18
2023-04-10T09:38:20.242Z,99.92
2023-04-10T09:41:22.258Z,85.25
2023-04-10T09:44:47.806Z,81.75
2023-04-10T09:48:08.757Z,85.77
2023-04-10T09:51:30.075Z,87.32
2023-04-10T09:57:54.029Z,83.32
2023-04-10T10:00:56.247Z,87.71
2023-04-10T10:04:10.309Z,90.61
2023-04-10T10:07:18.215Z,94.17
2023-04-10T10:10:21.168Z,95.42
2023-04-10T10:13:41.653Z,94.10
2023-04-10T10:16:50.404Z,92.90
2023-04-10T10:20:07.822Z,92.97
2023-04-10T10:23:10.137Z,91.00
2023-04-10T10:26:15.436Z,92.33
2023-04-10T10:29:18.926Z,93.25
2023-04-10T10:32:22.100Z,94.68
2023-04-10T10:35:29.848Z,82.37
2023-04-10T10:38:50.730Z,75.60
2023-04-10T10:42:04.577Z,74.47
2023-04-10T10:45:13.444Z,73.16
2023-04-10T10:48:15.589Z,75.42
2023-04-10T10:51:19.083Z,73.37
2023-04-10T10:54:34.412Z,73.34
2023-04-10T10:57:46.940Z,72.50
2023-04-10T11:00:51.875Z,71.83
2023-04-10T11:03:54.227Z,74.21
2023-04-10T11:07:00.351Z,75.62
2023-04-10T11:10:04.982Z,78.14
2023-04-10T11:13:20.503Z,82.88
2023-04-10T11:16:52.163Z,88.24
2023-04-10T11:20:12.185Z,89.70
2023-04-10T11:23:16.695Z,88.85
2023-04-10T11:26:52.670Z,89.65
2023-04-10T11:30:41.109Z,87.95
2023-04-10T11:33:43.790Z,87.62
2023-04-10T11:36:48.285Z,87.79
2023-04-10T11:40:04.811Z,86.42
2023-04-10T11:43:32.760Z,86.47
2023-04-10T11:46:53.761Z,87.45
2023-04-10T11:49:58.841Z,88.30
2023-04-10T11:53:02.946Z,86.95
2023-04-10T11:56:07.858Z,84.18
2023-04-10T11:59:24.802Z,86.83
2023-04-10T12:02:26.905Z,85.75
2023-04-10T12:05:44.906Z,84.61
2023-04-10T12:08:49.669Z,85.57
2023-04-10T12:12:01.168Z,86.01
2023-04-10T12:15:13.776Z,85.64
2023-04-10T12:21:41.103Z,88.42
2023-04-10T12:24:47.799Z,91.03
2023-04-10T12:27:57.751Z,92.30
2023-04-10T12:31:08.268Z,93.21
2023-04-10T12:34:11.419Z,91.78
2023-04-10T12:37:22.500Z,91.73
2023-04-10T12:40:27.870Z,91.29
2023-04-10T12:43:42.408Z,91.07
2023-04-10T12:46:48.064Z,91.19
2023-04-10T12:50:34.966Z,91.40
2023-04-10T12:53:44.777Z,89.47
2023-04-10T12:56:47.957Z,89.40
2023-04-10T12:59:52.001Z,89.68
2023-04-10T13:02:55.003Z,88.76
2023-04-10T13:05:57.588Z,88.99
2023-04-10T13:09:00.015Z,88.38
2023-04-10T13:12:04.207Z,90.23
2023-04-10T13:15:08.289Z,89.80
2023-04-10T13:18:11.359Z,90.02
2023-04-10T13:21:38.727Z,89.94
2023-04-10T13:24:42.175Z,89.38
2023-04-10T13:27:44.408Z,88.12
2023-04-10T13:31:21.210Z,87.92
2023-04-10T13:34:28.963Z,87.04
2023-04-10T13:37:36.980Z,86.59
2023-04-10T13:40:40.680Z,85.69
2023-04-10T13:43:44.153Z,83.49
2023-04-10T13:46:52.234Z,84.57
2023-04-10T13:55:41.740Z,83.91
2023-04-10T14:04:28.293Z,85.76
2023-04-10T14:07:30.720Z,87.47
2023-04-10T14:10:33.098Z,89.43
2023-04-10T14:13:40.255Z,88.77
2023-04-10T14:16:46.059Z,89.84
2023-04-10T14:19:51.751Z,87.45
2023-04-10T14:22:54.801Z,88.06
2023-04-10T14:25:58.209Z,87.41
2023-04-10T14:32:38.845Z,89.79
2023-04-10T14:35:45.128Z,90.47
2023-04-10T14:38:51.775Z,92.08
2023-04-10T14:41:55.122Z,90.29
2023-04-10T14:44:59.576Z,90.13
2023-04-10T14:48:06.665Z,89.28
2023-04-10T14:51:17.333Z,87.80
2023-04-10T14:54:22.368Z,84.48
2023-04-10T14:57:30.072Z,82.38
2023-04-10T15:00:35.238Z,80.65
2023-04-10T15:03:38.054Z,80.74
2023-04-10T15:06:40.569Z,80.10
2023-04-10T15:09:44.639Z,79.23
2023-04-10T15:12:49.048Z,79.01
2023-04-10T15:15:58.033Z,80.14
2023-04-10T15:19:00.711Z,80.45
2023-04-10T15:22:06.851Z,83.21
2023-04-10T15:25:21.334Z,81.65
2023-04-10T15:28:23.766Z,84.07
2023-04-10T15:31:26.364Z,86.62
2023-04-10T15:34:29.982Z,85.57
2023-04-10T15:37:35.048Z,86.86
2023-04-10T15:40:37.194Z,86.84
2023-04-10T15:43:39.658Z,87.33
2023-04-10T15:46:56.313Z,86.18
2023-04-10T15:49:59.024Z,85.13
2023-04-10T15:53:01.334Z,84.54
2023-04-10T15:56:06.039Z,84.98
2023-04-10T15:59:20.852Z,84.57
2023-04-10T16:02:27.308Z,84.37
2023-04-10T16:05:29.634Z,84.12
2023-04-10T16:08:31.997Z,82.58
2023-04-10T16:11:34.311Z,84.62
2023-04-10T16:14:40.978Z,83.77
2023-04-10T16:17:45.684Z,85.05
2023-04-10T16:20:47.906Z,86.34
2023-04-10T16:23:56.603Z,88.16
2023-04-10T16:26:59.331Z,88.45
2023-04-10T16:30:02.751Z,88.70
2023-04-10T16:33:04.848Z,88.54
2023-04-10T16:36:13.309Z,90.17
2023-04-10T16:39:15.470Z,89.67
2023-04-10T16:42:21.305Z,90.35
2023-04-10T16:45:27.985Z,90.17
2023-04-10T16:48:30.131Z,90.38
2023-04-10T16:51:32.656Z,89.28
2023-04-10T16:54:34.776Z,92.74
2023-04-10T16:57:39.105Z,95.91
2023-04-10T17:00:42.459Z,97.91
2023-04-10T17:03:49.164Z,100.00
2023-04-10T17:06:55.292Z,98.08
2023-04-10T17:09:59.777Z,100.00
2023-04-10T17:13:04.229Z,100.00
2023-04-10T17:16:07.554Z,100.00
2023-04-10T17:19:10.208Z,100.00
2023-04-10T17:22:23.329Z,100.00
2023-04-10T17:25:26.073Z,100.00
2023-04-10T17:28:53.036Z,100.00
2023-04-10T17:31:56.286Z,100.00
2023-04-10T17:35:00.593Z,100.00
2023-04-10T17:38:06.692Z,100.00
2023-04-10T17:41:21.309Z,100.00
2023-04-10T17:44:23.670Z,100.00
2023-04-10T17:47:25.937Z,100.00
2023-04-10T17:50:28.913Z,100.00
2023-04-10T17:53:34.512Z,98.30
2023-04-10T17:56:42.573Z,96.42
2023-04-10T17:59:45.562Z,94.72
2023-04-10T18:02:50.205Z,93.30
2023-04-10T18:05:55.897Z,91.92
2023-04-10T18:09:00.826Z,91.50
2023-04-10T18:12:03.306Z,90.79
2023-04-10T18:15:07.642Z,90.67
2023-04-10T18:18:09.706Z,89.58
2023-04-10T18:21:15.629Z,88.66
2023-04-10T18:24:19.456Z,89.71
2023-04-10T18:27:21.649Z,90.08
2023-04-10T18:30:28.074Z,90.90
2023-04-10T18:33:31.629Z,90.03
2023-04-10T18:36:59.354Z,89.51
2023-04-10T18:40:16.435Z,87.97
2023-04-10T18:43:25.713Z,88.81
2023-04-10T18:46:28.425Z,86.55
2023-04-10T18:49:31.916Z,100.00
2023-04-10T18:52:34.803Z,95.09
2023-04-10T18:55:36.933Z,87.46
2023-04-10T18:58:41.646Z,86.06
2023-04-10T19:01:47.736Z,85.74
2023-04-10T19:04:51.067Z,86.09
2023-04-10T19:08:03.651Z,85.67
2023-04-10T19:11:09.394Z,85.13
2023-04-10T19:14:12.413Z,85.55
2023-04-10T19:17:14.936Z,84.80
2023-04-10T19:20:17.482Z,84.14
2023-04-10T19:23:41.704Z,86.25
2023-04-10T19:26:45.201Z,83.24
2023-04-10T19:29:47.432Z,83.78
2023-04-10T19:32:49.842Z,84.17
2023-04-10T19:35:51.992Z,82.55
2023-04-10T19:38:57.540Z,82.89
2023-04-10T19:42:00.366Z,82.37
2023-04-10T19:45:03.416Z,82.42
2023-04-10T19:48:10.192Z,83.33
2023-04-10T19:51:15.585Z,82.55
2023-04-10T19:54:20.911Z,81.86
2023-04-10T19:57:23.078Z,82.22
2023-04-10T20:00:25.384Z,82.36
2023-04-10T20:03:28.240Z,82.53
2023-04-10T20:06:32.069Z,82.58
2023-04-10T20:09:36.934Z,82.44
2023-04-10T20:12:39.574Z,82.33
2023-04-10T20:15:41.787Z,81.23
2023-04-10T20:18:43.943Z,81.64
2023-04-10T20:21:47.300Z,81.82
2023-04-10T20:24:49.532Z,81.37
2023-04-10T20:27:51.720Z,80.86
2023-04-10T20:30:54.428Z,81.75
2023-04-10T20:33:56.902Z,81.85
2023-04-10T20:36:59.672Z,82.05
2023-04-10T20:40:01.906Z,83.44
2023-04-10T20:43:11.145Z,83.53
2023-04-10T20:46:13.415Z,82.22
2023-04-10T20:49:16.114Z,82.22
2023-04-10T20:52:18.305Z,82.67
2023-04-10T20:55:20.445Z,82.75
2023-04-10T20:58:22.882Z,82.50
2023-04-10T21:01:25.695Z,82.12
2023-04-10T21:04:28.184Z,82.40
2023-04-10T21:07:30.464Z,82.17
2023-04-10T21:10:32.982Z,82.11
2023-04-10T21:13:37.900Z,82.23
2023-04-10T21:16:45.198Z,82.37
2023-04-10T21:19:47.877Z,82.40
2023-04-10T21:22:50.331Z,82.62
2023-04-10T21:25:55.764Z,82.52
2023-04-10T21:28:57.905Z,82.53
2023-04-10T21:32:04.011Z,82.62
2023-04-10T21:35:09.110Z,82.92
2023-04-10T21:38:12.119Z,83.08
2023-04-10T21:41:15.470Z,83.51
2023-04-10T21:44:17.628Z,83.00
2023-04-10T21:47:20.919Z,82.81
2023-04-10T21:50:24.796Z,82.79
2023-04-10T21:53:26.993Z,82.19
2023-04-10T21:56:29.485Z,82.27
2023-04-10T21:59:32.424Z,82.25
2023-04-10T22:02:34.739Z,82.39
2023-04-10T22:05:36.908Z,81.82
2023-04-10T22:08:39.020Z,82.30
2023-04-10T22:11:41.694Z,82.34
2023-04-10T22:14:43.736Z,83.40
2023-04-10T22:17:45.854Z,83.16
2023-04-10T22:20:48.073Z,83.74
2023-04-10T22:23:50.222Z,83.16
2023-04-10T22:26:52.319Z,84.34
2023-04-10T22:30:03.176Z,83.26
2023-04-10T22:33:06.423Z,84.14
2023-04-10T22:36:09.271Z,83.54
2023-04-10T22:39:11.549Z,83.72
2023-04-10T22:42:14.033Z,84.07
2023-04-10T22:45:16.159Z,83.17
2023-04-10T22:48:18.401Z,83.58
2023-04-10T22:51:21.103Z,83.63
2023-04-10T22:54:24.159Z,83.27
2023-04-10T22:57:26.492Z,84.14
2023-04-10T23:00:28.635Z,83.78
2023-04-10T23:03:31.173Z,84.21
2023-04-10T23:06:33.558Z,83.94
2023-04-10T23:09:35.690Z,84.81
2023-04-10T23:12:38.595Z,84.85
2023-04-10T23:15:40.848Z,84.80
2023-04-10T23:18:45.232Z,84.37
2023-04-10T23:21:47.334Z,84.18
2023-04-10T23:24:54.300Z,84.13
2023-04-10T23:27:56.391Z,83.20
2023-04-10T23:30:59.631Z,83.34
2023-04-10T23:34:01.904Z,83.09
2023-04-10T23:37:04.012Z,83.63
2023-04-10T23:40:07.314Z,83.36
2023-04-10T23:43:09.509Z,83.36
2023-04-10T23:46:11.640Z,83.43
2023-04-10T23:49:13.784Z,83.17
2023-04-10T23:52:16.871Z,82.14
2023-04-10T23:55:19.326Z,82.95
2023-04-10T23:58:21.561Z,82.88
